Time,TemperatureF,DewpointF,PressureIn,WindDirection,WindDirectionDegrees,WindSpeedMPH,WindSpeedGustMPH,Humidity,HourlyPrecipIn,Conditions,Clouds,dailyrainin,SoftwareType,DateUTC
2013-01-10 00:02:00,43.8,34.0,30.24,WNW,288,1.0,5.0,68,0.00,,,0.00,weatherlink.com 1.10,2013-01-10 05:02:00,
2013-01-10 00:17:00,43.6,34.0,30.25,West,281,2.0,3.0,68,0.00,,,0.00,weatherlink.com 1.10,2013-01-10 05:17:00,
2013-01-10 00:45:00,43.5,33.0,30.26,NW,314,0.0,6.0,66,0.00,,,0.00,weatherlink.com 1.10,2013-01-10 05:45:00,
2013-01-10 01:02:00,43.3,32.0,30.27,SW,236,1.0,3.0,65,0.00,,,0.00,weatherlink.com 1.10,2013-01-10 06:02:00,
2013-01-10 01:17:00,43.2,32.0,30.28,NNW,329,1.0,3.0,65,0.00,,,0.00,weatherlink.com 1.10,2013-01-10 06:17:00,
2013-01-10 01:32:00,43.1,32.0,30.28,WNW,283,0.0,4.0,65,0.00,,,0.00,weatherlink.com 1.10,2013-01-10 06:32:00,
2013-01-10 01:47:00,42.5,31.0,30.30,NNE,15,2.0,3.0,65,0.00,,,0.00,weatherlink.com 1.10,2013-01-10 06:47:00,
2013-01-10 02:02:00,42.5,31.0,30.31,NNW,340,0.0,3.0,63,0.00,,,0.00,weatherlink.com 1.10,2013-01-10 07:02:00,
2013-01-10 02:17:00,42.9,30.0,30.32,North,356,1.0,6.0,61,0.00,,,0.00,weatherlink.com 1.10,2013-01-10 07:17:00,
2013-01-10 02:32:00,42.7,30.0,30.32,NW,308,0.0,4.0,60,0.00,,,0.00,weatherlink.com 1.10,2013-01-10 07:32:00,
2013-01-10 02:47:00,42.4,29.0,30.32,WNW,285,2.0,4.0,60,0.00,,,0.00,weatherlink.com 1.10,2013-01-10 07:47:00,
2013-01-10 03:02:00,42.3,29.0,30.33,NNW,329,1.0,6.0,59,0.00,,,0.00,weatherlink.com 1.10,2013-01-10 08:02:00,
2013-01-10 03:17:00,41.9,29.0,30.33,West,262,0.0,5.0,60,0.00,,,0.00,weatherlink.com 1.10,2013-01-10 08:17:00,
2013-01-10 03:32:00,41.8,29.0,30.34,NW,326,0.0,5.0,60,0.00,,,0.00,weatherlink.com 1.10,2013-01-10 08:32:00,
2013-01-10 03:47:00,41.4,28.0,30.35,West,277,0.0,4.0,60,0.00,,,0.00,weatherlink.com 1.10,2013-01-10 08:47:00,
2013-01-10 04:02:00,40.8,28.0,30.36,NNW,345,0.0,1.0,61,0.00,,,0.00,weatherlink.com 1.10,2013-01-10 09:02:00,
2013-01-10 04:17:00,39.8,28.0,30.36,WNW,291,0.0,1.0,63,0.00,,,0.00,weatherlink.com 1.10,2013-01-10 09:17:00,
2013-01-10 04:32:00,40.4,28.0,30.35,NW,323,1.0,7.0,62,0.00,,,0.00,weatherlink.com 1.10,2013-01-10 09:32:00,
2013-01-10 04:47:00,41.1,28.0,30.36,WNW,297,0.0,10.0,60,0.00,,,0.00,weatherlink.com 1.10,2013-01-10 09:47:00,
2013-01-10 05:02:00,41.0,28.0,30.37,WSW,243,2.0,6.0,60,0.00,,,0.00,weatherlink.com 1.10,2013-01-10 10:02:00,
2013-01-10 05:18:00,40.5,28.0,30.38,SSW,203,0.0,4.0,62,0.00,,,0.00,weatherlink.com 1.10,2013-01-10 10:18:00,
2013-01-10 05:33:00,40.5,28.0,30.39,NE,56,0.0,6.0,61,0.00,,,0.00,weatherlink.com 1.10,2013-01-10 10:33:00,
2013-01-10 05:48:00,40.3,28.0,30.39,ESE,123,0.0,3.0,61,0.00,,,0.00,weatherlink.com 1.10,2013-01-10 10:48:00,
2013-01-10 06:03:00,40.0,27.0,30.40,NNW,340,0.0,3.0,61,0.00,,,0.00,weatherlink.com 1.10,2013-01-10 11:03:00,
2013-01-10 06:18:00,39.8,27.0,30.41,West,280,0.0,4.0,61,0.00,,,0.00,weatherlink.com 1.10,2013-01-10 11:18:00,
2013-01-10 06:33:00,39.5,27.0,30.42,WSW,240,0.0,1.0,61,0.00,,,0.00,weatherlink.com 1.10,2013-01-10 11:33:00,
2013-01-10 06:48:00,38.4,27.0,30.43,West,278,0.0,0.0,63,0.00,,,0.00,weatherlink.com 1.10,2013-01-10 11:48:00,
2013-01-10 07:03:00,38.6,27.0,30.43,WSW,257,1.0,2.0,63,0.00,,,0.00,weatherlink.com 1.10,2013-01-10 12:03:00,
2013-01-10 07:18:00,38.6,27.0,30.43,North,11,2.0,3.0,63,0.00,,,0.00,weatherlink.com 1.10,2013-01-10 12:18:00,
2013-01-10 07:33:00,38.4,27.0,30.45,ENE,74,0.0,4.0,64,0.00,,,0.00,weatherlink.com 1.10,2013-01-10 12:33:00,
2013-01-10 07:48:00,38.5,27.0,30.46,NNW,345,0.0,3.0,64,0.00,,,0.00,weatherlink.com 1.10,2013-01-10 12:48:00,
2013-01-10 08:03:00,38.7,27.0,30.46,North,9,1.0,3.0,63,0.00,,,0.00,weatherlink.com 1.10,2013-01-10 13:03:00,
2013-01-10 08:18:00,39.2,27.0,30.48,SE,146,0.0,2.0,62,0.00,,,0.00,weatherlink.com 1.10,2013-01-10 13:18:00,
2013-01-10 08:33:00,39.5,27.0,30.48,ESE,121,0.0,3.0,62,0.00,,,0.00,weatherlink.com 1.10,2013-01-10 13:33:00,
2013-01-10 08:48:00,39.6,27.0,30.49,North,351,2.0,6.0,62,0.00,,,0.00,weatherlink.com 1.10,2013-01-10 13:48:00,
2013-01-10 09:03:00,40.7,27.0,30.50,West,266,0.0,5.0,59,0.00,,,0.00,weatherlink.com 1.10,2013-01-10 14:03:00,
2013-01-10 09:18:00,41.7,27.0,30.51,WNW,291,2.0,6.0,56,0.00,,,0.00,weatherlink.com 1.10,2013-01-10 14:18:00,
2013-01-10 09:33:00,42.4,27.0,30.50,North,5,1.0,11.0,54,0.00,,,0.00,weatherlink.com 1.10,2013-01-10 14:33:00,
2013-01-10 09:48:00,42.8,27.0,30.51,WNW,288,1.0,8.0,53,0.00,,,0.00,weatherlink.com 1.10,2013-01-10 14:48:00,
2013-01-10 10:03:00,42.8,26.0,30.51,North,11,3.0,7.0,51,0.00,,,0.00,weatherlink.com 1.10,2013-01-10 15:03:00,
2013-01-10 10:18:00,42.8,26.0,30.51,WSW,252,2.0,7.0,52,0.00,,,0.00,weatherlink.com 1.10,2013-01-10 15:18:00,
2013-01-10 10:33:00,42.9,26.0,30.51,NNW,335,2.0,7.0,52,0.00,,,0.00,weatherlink.com 1.10,2013-01-10 15:33:00,
2013-01-10 10:48:00,43.2,26.0,30.50,WSW,239,4.0,13.0,50,0.00,,,0.00,weatherlink.com 1.10,2013-01-10 15:48:00,
2013-01-10 11:03:00,43.7,25.0,30.50,NE,51,7.0,9.0,49,0.00,,,0.00,weatherlink.com 1.10,2013-01-10 16:03:00,
2013-01-10 11:18:00,43.8,25.0,30.49,NNE,20,3.0,13.0,48,0.00,,,0.00,weatherlink.com 1.10,2013-01-10 16:18:00,
2013-01-10 11:33:00,44.3,26.0,30.48,North,9,8.0,9.0,48,0.00,,,0.00,weatherlink.com 1.10,2013-01-10 16:33:00,
2013-01-10 11:49:00,44.4,25.0,30.48,SW,231,2.0,8.0,47,0.00,,,0.00,weatherlink.com 1.10,2013-01-10 16:49:00,
2013-01-10 12:03:00,44.5,25.0,30.48,North,356,4.0,8.0,47,0.00,,,0.00,weatherlink.com 1.10,2013-01-10 17:03:00,
2013-01-10 12:18:00,44.8,25.0,30.47,North,4,5.0,9.0,47,0.00,,,0.00,weatherlink.com 1.10,2013-01-10 17:18:00,
2013-01-10 12:33:00,45.6,26.0,30.47,SW,214,4.0,6.0,46,0.00,,,0.00,weatherlink.com 1.10,2013-01-10 17:33:00,
2013-01-10 12:48:00,45.5,25.0,30.46,WNW,289,1.0,8.0,45,0.00,,,0.00,weatherlink.com 1.10,2013-01-10 17:48:00,
2013-01-10 13:03:00,45.9,25.0,30.46,WNW,287,2.0,9.0,45,0.00,,,0.00,weatherlink.com 1.10,2013-01-10 18:03:00,
2013-01-10 13:18:00,45.9,25.0,30.46,NNE,26,5.0,6.0,45,0.00,,,0.00,weatherlink.com 1.10,2013-01-10 18:18:00,
2013-01-10 13:33:00,45.9,25.0,30.47,North,349,1.0,9.0,45,0.00,,,0.00,weatherlink.com 1.10,2013-01-10 18:33:00,
2013-01-10 13:49:00,46.5,25.0,30.47,NNE,16,0.0,8.0,44,0.00,,,0.00,weatherlink.com 1.10,2013-01-10 18:49:00,
2013-01-10 14:04:00,47.2,26.0,30.47,North,1,5.0,7.0,43,0.00,,,0.00,weatherlink.com 1.10,2013-01-10 19:04:00,
2013-01-10 14:19:00,47.6,25.0,30.47,SW,226,4.0,6.0,42,0.00,,,0.00,weatherlink.com 1.10,2013-01-10 19:19:00,
2013-01-10 14:34:00,47.6,25.0,30.48,WNW,290,0.0,5.0,42,0.00,,,0.00,weatherlink.com 1.10,2013-01-10 19:34:00,
2013-01-10 14:49:00,47.7,25.0,30.48,NW,326,1.0,6.0,42,0.00,,,0.00,weatherlink.com 1.10,2013-01-10 19:49:00,
2013-01-10 15:03:00,47.6,25.0,30.48,SSW,212,5.0,7.0,41,0.00,,,0.00,weatherlink.com 1.10,2013-01-10 20:03:00,
2013-01-10 15:19:00,47.4,25.0,30.48,WNW,287,4.0,6.0,42,0.00,,,0.00,weatherlink.com 1.10,2013-01-10 20:19:00,
2013-01-10 15:34:00,47.7,25.0,30.49,NNW,336,0.0,5.0,42,0.00,,,0.00,weatherlink.com 1.10,2013-01-10 20:34:00,
2013-01-10 15:49:00,47.6,25.0,30.50,ESE,110,0.0,4.0,42,0.00,,,0.00,weatherlink.com 1.10,2013-01-10 20:49:00,
2013-01-10 16:04:00,47.2,25.0,30.50,WNW,288,0.0,6.0,42,0.00,,,0.00,weatherlink.com 1.10,2013-01-10 21:04:00,
2013-01-10 16:19:00,46.9,25.0,30.50,WSW,255,0.0,3.0,43,0.00,,,0.00,weatherlink.com 1.10,2013-01-10 21:19:00,
2013-01-10 16:34:00,46.1,25.0,30.50,NE,40,1.0,3.0,44,0.00,,,0.00,weatherlink.com 1.10,2013-01-10 21:34:00,
2013-01-10 16:49:00,44.9,25.0,30.51,North,11,2.0,2.0,46,0.00,,,0.00,weatherlink.com 1.10,2013-01-10 21:49:00,
2013-01-10 17:04:00,44.3,25.0,30.51,ENE,78,0.0,1.0,47,0.00,,,0.00,weatherlink.com 1.10,2013-01-10 22:04:00,
2013-01-10 17:19:00,44.1,25.0,30.51,NNW,345,0.0,2.0,47,0.00,,,0.00,weatherlink.com 1.10,2013-01-10 22:19:00,
2013-01-10 17:34:00,43.8,25.0,30.51,NW,322,0.0,3.0,48,0.00,,,0.00,weatherlink.com 1.10,2013-01-10 22:34:00,
2013-01-10 17:49:00,42.8,25.0,30.52,SW,214,1.0,1.0,50,0.00,,,0.00,weatherlink.com 1.10,2013-01-10 22:49:00,
2013-01-10 18:04:00,41.7,26.0,30.53,SE,132,0.0,1.0,53,0.00,,,0.00,weatherlink.com 1.10,2013-01-10 23:04:00,
2013-01-10 18:19:00,40.5,26.0,30.53,SE,133,0.0,0.0,56,0.00,,,0.00,weatherlink.com 1.10,2013-01-10 23:19:00,
2013-01-10 18:34:00,39.5,26.0,30.53,SE,132,0.0,0.0,59,0.00,,,0.00,weatherlink.com 1.10,2013-01-10 23:34:00,
2013-01-10 18:49:00,38.5,26.0,30.53,SE,132,0.0,0.0,62,0.00,,,0.00,weatherlink.com 1.10,2013-01-10 23:49:00,
2013-01-10 19:04:00,39.6,26.0,30.52,SE,139,0.0,1.0,58,0.00,,,0.00,weatherlink.com 1.10,2013-01-11 00:04:00,
2013-01-10 19:19:00,39.4,26.0,30.53,SSE,154,0.0,1.0,59,0.00,,,0.00,weatherlink.com 1.10,2013-01-11 00:19:00,
2013-01-10 19:34:00,38.8,26.0,30.53,ESE,121,1.0,1.0,61,0.00,,,0.00,weatherlink.com 1.10,2013-01-11 00:34:00,
2013-01-10 19:49:00,38.5,26.0,30.53,SE,127,0.0,1.0,61,0.00,,,0.00,weatherlink.com 1.10,2013-01-11 00:49:00,
2013-01-10 20:04:00,38.1,26.0,30.52,SE,127,0.0,0.0,63,0.00,,,0.00,weatherlink.com 1.10,2013-01-11 01:04:00,
2013-01-10 20:19:00,37.5,27.0,30.53,SE,127,0.0,0.0,65,0.00,,,0.00,weatherlink.com 1.10,2013-01-11 01:19:00,
2013-01-10 20:34:00,36.9,26.0,30.53,SE,124,0.0,0.0,66,0.00,,,0.00,weatherlink.com 1.10,2013-01-11 01:34:00,
2013-01-10 20:49:00,36.3,27.0,30.54,SE,127,0.0,0.0,68,0.00,,,0.00,weatherlink.com 1.10,2013-01-11 01:49:00,
2013-01-10 21:04:00,36.2,27.0,30.54,SE,128,0.0,0.0,68,0.00,,,0.00,weatherlink.com 1.10,2013-01-11 02:04:00,
2013-01-10 21:19:00,36.8,26.0,30.54,SE,133,0.0,0.0,66,0.00,,,0.00,weatherlink.com 1.10,2013-01-11 02:19:00,
2013-01-10 21:34:00,37.8,27.0,30.53,ENE,70,1.0,3.0,64,0.00,,,0.00,weatherlink.com 1.10,2013-01-11 02:34:00,
2013-01-10 21:49:00,39.2,27.0,30.53,WSW,244,0.0,2.0,61,0.00,,,0.00,weatherlink.com 1.10,2013-01-11 02:49:00,
2013-01-10 22:04:00,38.7,27.0,30.53,WSW,243,0.0,0.0,62,0.00,,,0.00,weatherlink.com 1.10,2013-01-11 03:04:00,
2013-01-10 22:19:00,39.0,27.0,30.53,WSW,251,0.0,2.0,62,0.00,,,0.00,weatherlink.com 1.10,2013-01-11 03:19:00,
2013-01-10 22:34:00,39.3,26.0,30.53,SE,126,0.0,3.0,60,0.00,,,0.00,weatherlink.com 1.10,2013-01-11 03:34:00,
2013-01-10 22:49:00,39.5,26.0,30.53,ESE,113,0.0,3.0,59,0.00,,,0.00,weatherlink.com 1.10,2013-01-11 03:49:00,
2013-01-10 23:04:00,39.3,25.0,30.54,ENE,59,1.0,2.0,58,0.00,,,0.00,weatherlink.com 1.10,2013-01-11 04:04:00,
2013-01-10 23:19:00,39.1,26.0,30.54,East,82,0.0,0.0,59,0.00,,,0.00,weatherlink.com 1.10,2013-01-11 04:19:00,
2013-01-10 23:34:00,38.7,26.0,30.55,ENE,63,0.0,0.0,60,0.00,,,0.00,weatherlink.com 1.10,2013-01-11 04:34:00,
2013-01-10 23:49:00,38.3,25.0,30.55,ENE,64,0.0,0.0,60,0.00,,,0.00,weatherlink.com 1.10,2013-01-11 04:49:00,